Currently 53°F in Pinon Hills, California, USA
53°F
69°F / 44°F
3 mph S
0.00"
Wednesday, October 20, 2021 10:52 PM PDT

Pinon Hills, California Weather Summary
Last 36 Hours

Temperature Winds Hourly Humidity Dewpoint
Time Report Norm Report Norm Max Gusts Precip. Rpt. Norm Rpt. Norm Pressure
1Wed 10:52 PM  52.9°F  59°F  3 mph S  3 mph  3 mph  0.00"  33%  40%  23°F  34°F  30.31"
Wed 10:00 PM  53.8°F  59°F  2 mph S  3 mph  6 mph  0.00"  34%  39%  25°F  34°F  30.30"
Wed 09:00 PM  55.2°F  60°F  3 mph S  3 mph  7 mph  0.00"  32%  37%  25°F  33°F  30.30"
Wed 08:00 PM  54.4°F  61°F  2 mph S  3 mph  6 mph  0.00"  33%  37%  25°F  33°F  30.28"
Wed 07:00 PM  58.3°F  62°F  3 mph S  2 mph  5 mph  0.00"  29%  36%  25°F  33°F  30.27"
Wed 06:00 PM  63.0°F  67°F  2 mph SE  2 mph  4 mph  0.00"  24%  31%  24°F  34°F  30.24"
Wed 05:00 PM  68.5°F  71°F  calm  2 mph  5 mph  0.00"  20%  26%  24°F  33°F  30.23"
2Wed 04:01 PM  68.7°F  72°F  1 mph N  3 mph  5 mph  ----  19%  25%  23°F  33°F  30.23"
Wed 04:00 PM  68.5°F  72°F  2 mph N  3 mph  7 mph  0.00"  19%  25%  23°F  33°F  30.23"
Wed 03:00 PM  67.5°F  72°F  2 mph N  3 mph  9 mph  0.00"  21%  25%  24°F  33°F  30.22"
Wed 02:00 PM  68.0°F  72°F  2 mph NE  3 mph  10 mph  0.00"  21%  25%  25°F  33°F  30.22"
Wed 01:00 PM  65.9°F  72°F  1 mph NE  3 mph  10 mph  0.00"  24%  26%  27°F  33°F  30.21"
Wed 12:00 PM  65.1°F  70°F  4 mph E  3 mph  8 mph  0.00"  25%  28%  27°F  34°F  30.19"
Wed 11:00 AM  63.1°F  68°F  1 mph E  3 mph  6 mph  0.00"  27%  30%  27°F  34°F  30.18"
Wed 10:00 AM  59.5°F  66°F  1 mph SE  2 mph  5 mph  0.00"  30%  32%  27°F  35°F  30.19"
Wed 09:00 AM  56.8°F  64°F  calm  2 mph  4 mph  0.00"  33%  36%  27°F  35°F  30.24"
Wed 08:00 AM  49.9°F  59°F  2 mph SW  2 mph  8 mph  0.00"  40%  40%  25°F  34°F  30.26"
Wed 07:00 AM  46.3°F  55°F  calm  2 mph  none  0.00"  42%  43%  24°F  33°F  30.28"
Wed 06:00 AM  46.7°F  56°F  calm  2 mph  none  0.00"  43%  43%  24°F  33°F  30.26"
Wed 05:00 AM  46.7°F  56°F  calm  2 mph  4 mph  0.00"  44%  42%  25°F  33°F  30.25"
Wed 04:00 AM  45.8°F  57°F  calm  3 mph  none  0.00"  44%  42%  24°F  33°F  30.24"
Wed 03:00 AM  45.9°F  57°F  calm  3 mph  none  0.00"  47%  41%  26°F  33°F  30.23"
3Wed 02:28 AM  43.6°F  58°F  calm  3 mph  none  ----  49%  40%  25°F  33°F  30.24"
Wed 02:00 AM  45.7°F  58°F  calm  3 mph  none  0.00"  47%  41%  26°F  33°F  30.23"
Wed 01:00 AM  45.1°F  58°F  calm  3 mph  none  0.00"  49%  41%  26°F  33°F  30.23"
Wed 12:00 AM  47.4°F  58°F  calm  3 mph  7 mph  0.00"  44%  41%  26°F  34°F  30.23"
Tue 11:00 PM  48.0°F  59°F  calm  3 mph  10 mph  0.00"  44%  39%  26°F  33°F  30.22"
Tue 10:00 PM  49.0°F  60°F  4 mph W  2 mph  6 mph  0.00"  43%  39%  26°F  33°F  30.20"
Tue 09:00 PM  49.9°F  60°F  4 mph SW  3 mph  8 mph  0.00"  42%  37%  27°F  33°F  30.18"
Tue 08:00 PM  51.0°F  61°F  5 mph SW  3 mph  8 mph  0.00"  40%  37%  27°F  33°F  30.16"
Tue 07:00 PM  52.3°F  62°F  4 mph S  2 mph  8 mph  0.00"  38%  35%  26°F  33°F  30.14"
Tue 06:00 PM  58.7°F  67°F  calm  2 mph  5 mph  0.00"  29%  30%  25°F  33°F  30.13"
Tue 05:00 PM  62.5°F  71°F  calm  2 mph  8 mph  0.00"  25%  26%  25°F  33°F  30.13"
Tue 04:00 PM  63.1°F  73°F  1 mph E  3 mph  8 mph  0.00"  26%  24%  26°F  33°F  30.14"
Tue 03:00 PM  63.0°F  73°F  2 mph NE  3 mph  9 mph  0.00"  27%  24%  27°F  33°F  30.13"
Tue 02:00 PM  61.3°F  73°F  6 mph SE  3 mph  12 mph  0.00"  28%  24%  27°F  33°F  30.13"
Tue 01:00 PM  60.5°F  72°F  4 mph NE  3 mph  8 mph  0.00"  29%  25%  27°F  33°F  30.11"
Tue 12:00 PM  59.3°F  70°F  3 mph NE  3 mph  9 mph  0.00"  30%  27%  27°F  34°F  30.09"
Tue 11:00 AM  58.2°F  68°F  6 mph E  3 mph  10 mph  0.00"  32%  29%  27°F  34°F  30.08"

  1. Current weather data. No green row appears if the current weather data is also the high or low for the current day.
  2. High temperature for the current day.
  3. Low temperature for the current day.

The Pinon Hills, California weather pages are a service of WeatherCurrents.
Copyright ©2021  WeatherCurrents. All rights reserved. - Submit questions and comments - Privacy Policy

This page automatically refreshes every 10 minutes.